sensor_id;sensor_type;location;lat;lon;timestamp;P1;durP1;ratioP1;P2;durP2;ratioP2
12802;SDS011;6465;42.700;23.278;2023-11-21T00:00:23;51.23;;;33.30;;
12802;SDS011;6465;42.700;23.278;2023-11-21T00:02:52;51.10;;;31.50;;
12802;SDS011;6465;42.700;23.278;2023-11-21T00:05:19;47.27;;;32.07;;
12802;SDS011;6465;42.700;23.278;2023-11-21T00:07:48;49.50;;;34.00;;
12802;SDS011;6465;42.700;23.278;2023-11-21T00:10:16;45.40;;;33.23;;
12802;SDS011;6465;42.700;23.278;2023-11-21T00:12:43;49.77;;;30.70;;
12802;SDS011;6465;42.700;23.278;2023-11-21T00:15:13;44.13;;;27.23;;
12802;SDS011;6465;42.700;23.278;2023-11-21T00:17:40;35.37;;;26.47;;
12802;SDS011;6465;42.700;23.278;2023-11-21T00:20:09;47.90;;;33.03;;
12802;SDS011;6465;42.700;23.278;2023-11-21T00:22:37;62.77;;;47.87;;
12802;SDS011;6465;42.700;23.278;2023-11-21T00:25:05;135.70;;;97.50;;
12802;SDS011;6465;42.700;23.278;2023-11-21T00:27:34;148.63;;;104.43;;
12802;SDS011;6465;42.700;23.278;2023-11-21T00:30:01;96.50;;;66.60;;
12802;SDS011;6465;42.700;23.278;2023-11-21T00:32:30;37.50;;;27.10;;
12802;SDS011;6465;42.700;23.278;2023-11-21T00:34:57;26.10;;;19.20;;
12802;SDS011;6465;42.700;23.278;2023-11-21T00:37:26;31.00;;;23.97;;
12802;SDS011;6465;42.700;23.278;2023-11-21T00:39:53;30.40;;;22.80;;
12802;SDS011;6465;42.700;23.278;2023-11-21T00:42:19;31.70;;;22.50;;
12802;SDS011;6465;42.700;23.278;2023-11-21T00:44:47;27.17;;;20.17;;
12802;SDS011;6465;42.700;23.278;2023-11-21T00:47:14;22.20;;;16.50;;
12802;SDS011;6465;42.700;23.278;2023-11-21T00:49:41;21.77;;;17.07;;
12802;SDS011;6465;42.700;23.278;2023-11-21T00:52:09;21.50;;;15.63;;
12802;SDS011;6465;42.700;23.278;2023-11-21T00:54:37;22.13;;;14.47;;
12802;SDS011;6465;42.700;23.278;2023-11-21T00:57:04;18.27;;;14.60;;
12802;SDS011;6465;42.700;23.278;2023-11-21T00:59:33;17.63;;;14.53;;
12802;SDS011;6465;42.700;23.278;2023-11-21T01:02:00;23.57;;;16.03;;
12802;SDS011;6465;42.700;23.278;2023-11-21T01:04:27;22.37;;;14.50;;
12802;SDS011;6465;42.700;23.278;2023-11-21T01:06:54;20.70;;;14.90;;
12802;SDS011;6465;42.700;23.278;2023-11-21T01:09:21;20.73;;;14.80;;
12802;SDS011;6465;42.700;23.278;2023-11-21T01:11:49;21.73;;;15.33;;
12802;SDS011;6465;42.700;23.278;2023-11-21T01:14:17;21.50;;;15.53;;
12802;SDS011;6465;42.700;23.278;2023-11-21T01:16:44;21.43;;;15.20;;
12802;SDS011;6465;42.700;23.278;2023-11-21T01:19:11;26.10;;;18.27;;
12802;SDS011;6465;42.700;23.278;2023-11-21T01:21:38;25.23;;;17.23;;
12802;SDS011;6465;42.700;23.278;2023-11-21T01:24:05;26.27;;;17.03;;
12802;SDS011;6465;42.700;23.278;2023-11-21T01:26:32;22.83;;;16.67;;
12802;SDS011;6465;42.700;23.278;2023-11-21T01:29:01;25.90;;;17.17;;
12802;SDS011;6465;42.700;23.278;2023-11-21T01:31:28;23.30;;;17.30;;
12802;SDS011;6465;42.700;23.278;2023-11-21T01:33:55;26.33;;;15.47;;
12802;SDS011;6465;42.700;23.278;2023-11-21T01:36:22;20.50;;;14.67;;
12802;SDS011;6465;42.700;23.278;2023-11-21T01:38:48;20.30;;;14.77;;
12802;SDS011;6465;42.700;23.278;2023-11-21T01:41:15;32.50;;;20.43;;
12802;SDS011;6465;42.700;23.278;2023-11-21T01:43:42;24.50;;;16.47;;
12802;SDS011;6465;42.700;23.278;2023-11-21T01:46:10;20.50;;;15.30;;
12802;SDS011;6465;42.700;23.278;2023-11-21T01:48:37;29.17;;;19.57;;
12802;SDS011;6465;42.700;23.278;2023-11-21T01:51:04;26.63;;;17.93;;
12802;SDS011;6465;42.700;23.278;2023-11-21T01:53:32;20.73;;;15.57;;
12802;SDS011;6465;42.700;23.278;2023-11-21T01:55:59;21.00;;;14.40;;
12802;SDS011;6465;42.700;23.278;2023-11-21T01:58:26;21.07;;;14.87;;
12802;SDS011;6465;42.700;23.278;2023-11-21T02:00:53;19.77;;;15.07;;
12802;SDS011;6465;42.700;23.278;2023-11-21T02:03:24;17.50;;;13.70;;
12802;SDS011;6465;42.700;23.278;2023-11-21T02:05:51;22.70;;;14.90;;
12802;SDS011;6465;42.700;23.278;2023-11-21T02:08:18;24.03;;;16.57;;
12802;SDS011;6465;42.700;23.278;2023-11-21T02:10:45;22.77;;;16.67;;
12802;SDS011;6465;42.700;23.278;2023-11-21T02:13:12;19.33;;;15.33;;
12802;SDS011;6465;42.700;23.278;2023-11-21T02:15:41;26.73;;;18.90;;
12802;SDS011;6465;42.700;23.278;2023-11-21T02:18:08;32.63;;;21.27;;
12802;SDS011;6465;42.700;23.278;2023-11-21T02:20:37;26.60;;;18.43;;
12802;SDS011;6465;42.700;23.278;2023-11-21T02:23:08;22.77;;;15.03;;
12802;SDS011;6465;42.700;23.278;2023-11-21T02:25:35;21.63;;;13.20;;
12802;SDS011;6465;42.700;23.278;2023-11-21T02:28:02;25.13;;;18.70;;
12802;SDS011;6465;42.700;23.278;2023-11-21T02:30:30;29.50;;;18.90;;
12802;SDS011;6465;42.700;23.278;2023-11-21T02:32:57;25.37;;;17.63;;
12802;SDS011;6465;42.700;23.278;2023-11-21T02:35:24;25.40;;;18.23;;
12802;SDS011;6465;42.700;23.278;2023-11-21T02:37:52;22.30;;;16.17;;
12802;SDS011;6465;42.700;23.278;2023-11-21T02:40:20;15.70;;;12.67;;
12802;SDS011;6465;42.700;23.278;2023-11-21T02:42:47;14.40;;;12.10;;
12802;SDS011;6465;42.700;23.278;2023-11-21T02:45:16;20.03;;;13.87;;
12802;SDS011;6465;42.700;23.278;2023-11-21T02:47:43;20.97;;;15.63;;
12802;SDS011;6465;42.700;23.278;2023-11-21T02:50:11;21.33;;;16.13;;
12802;SDS011;6465;42.700;23.278;2023-11-21T02:52:37;22.60;;;17.50;;
12802;SDS011;6465;42.700;23.278;2023-11-21T02:55:06;22.60;;;15.27;;
12802;SDS011;6465;42.700;23.278;2023-11-21T02:57:34;20.27;;;14.13;;
12802;SDS011;6465;42.700;23.278;2023-11-21T03:00:02;18.87;;;14.70;;
12802;SDS011;6465;42.700;23.278;2023-11-21T03:02:32;16.13;;;14.20;;
12802;SDS011;6465;42.700;23.278;2023-11-21T03:05:04;19.93;;;15.27;;
12802;SDS011;6465;42.700;23.278;2023-11-21T03:07:31;25.57;;;19.83;;
12802;SDS011;6465;42.700;23.278;2023-11-21T03:09:58;34.87;;;18.50;;
12802;SDS011;6465;42.700;23.278;2023-11-21T03:12:25;27.20;;;18.53;;
12802;SDS011;6465;42.700;23.278;2023-11-21T03:14:53;24.57;;;16.20;;
12802;SDS011;6465;42.700;23.278;2023-11-21T03:17:20;26.33;;;15.80;;
12802;SDS011;6465;42.700;23.278;2023-11-21T03:19:47;28.27;;;18.30;;
12802;SDS011;6465;42.700;23.278;2023-11-21T03:22:14;24.10;;;17.43;;
12802;SDS011;6465;42.700;23.278;2023-11-21T03:24:41;22.60;;;17.53;;
12802;SDS011;6465;42.700;23.278;2023-11-21T03:27:07;24.27;;;18.43;;
12802;SDS011;6465;42.700;23.278;2023-11-21T03:29:34;22.77;;;18.47;;
12802;SDS011;6465;42.700;23.278;2023-11-21T03:32:03;26.23;;;17.37;;
12802;SDS011;6465;42.700;23.278;2023-11-21T03:34:32;24.07;;;15.50;;
12802;SDS011;6465;42.700;23.278;2023-11-21T03:36:59;21.43;;;15.73;;
12802;SDS011;6465;42.700;23.278;2023-11-21T03:39:25;28.63;;;17.33;;
12802;SDS011;6465;42.700;23.278;2023-11-21T03:41:54;27.67;;;17.27;;
12802;SDS011;6465;42.700;23.278;2023-11-21T03:44:21;28.37;;;16.97;;
12802;SDS011;6465;42.700;23.278;2023-11-21T03:46:48;29.20;;;18.57;;
12802;SDS011;6465;42.700;23.278;2023-11-21T03:49:16;35.70;;;19.63;;
12802;SDS011;6465;42.700;23.278;2023-11-21T03:51:43;33.70;;;19.10;;
12802;SDS011;6465;42.700;23.278;2023-11-21T03:54:10;30.07;;;18.47;;
12802;SDS011;6465;42.700;23.278;2023-11-21T03:56:37;22.53;;;17.33;;
12802;SDS011;6465;42.700;23.278;2023-11-21T03:59:04;19.27;;;14.93;;
12802;SDS011;6465;42.700;23.278;2023-11-21T04:01:30;33.87;;;18.53;;
12802;SDS011;6465;42.700;23.278;2023-11-21T04:03:58;34.50;;;21.30;;
12802;SDS011;6465;42.700;23.278;2023-11-21T04:06:26;33.27;;;22.73;;
12802;SDS011;6465;42.700;23.278;2023-11-21T04:08:53;38.07;;;24.50;;
12802;SDS011;6465;42.700;23.278;2023-11-21T04:11:20;38.30;;;27.47;;
12802;SDS011;6465;42.700;23.278;2023-11-21T04:13:46;40.80;;;31.10;;
12802;SDS011;6465;42.700;23.278;2023-11-21T04:16:13;61.50;;;44.47;;
12802;SDS011;6465;42.700;23.278;2023-11-21T04:18:40;66.10;;;45.50;;
12802;SDS011;6465;42.700;23.278;2023-11-21T04:21:07;58.67;;;44.53;;
12802;SDS011;6465;42.700;23.278;2023-11-21T04:23:36;66.50;;;43.97;;
12802;SDS011;6465;42.700;23.278;2023-11-21T04:26:03;60.03;;;40.70;;
12802;SDS011;6465;42.700;23.278;2023-11-21T04:28:30;54.80;;;38.87;;
12802;SDS011;6465;42.700;23.278;2023-11-21T04:30:56;43.57;;;34.90;;
12802;SDS011;6465;42.700;23.278;2023-11-21T04:33:23;34.83;;;26.87;;
12802;SDS011;6465;42.700;23.278;2023-11-21T04:35:50;28.00;;;19.03;;
12802;SDS011;6465;42.700;23.278;2023-11-21T04:38:17;23.80;;;17.63;;
12802;SDS011;6465;42.700;23.278;2023-11-21T04:40:46;24.07;;;17.27;;
12802;SDS011;6465;42.700;23.278;2023-11-21T04:43:12;29.57;;;20.80;;
12802;SDS011;6465;42.700;23.278;2023-11-21T04:45:39;32.20;;;22.40;;
12802;SDS011;6465;42.700;23.278;2023-11-21T04:48:06;25.20;;;17.23;;
12802;SDS011;6465;42.700;23.278;2023-11-21T04:50:33;21.70;;;18.23;;
12802;SDS011;6465;42.700;23.278;2023-11-21T04:53:00;27.83;;;20.63;;
12802;SDS011;6465;42.700;23.278;2023-11-21T04:55:27;26.30;;;19.10;;
12802;SDS011;6465;42.700;23.278;2023-11-21T04:57:55;31.00;;;21.63;;
12802;SDS011;6465;42.700;23.278;2023-11-21T05:00:22;27.30;;;19.67;;
12802;SDS011;6465;42.700;23.278;2023-11-21T05:02:49;25.07;;;19.47;;
12802;SDS011;6465;42.700;23.278;2023-11-21T05:05:16;26.20;;;19.57;;
12802;SDS011;6465;42.700;23.278;2023-11-21T05:07:44;40.00;;;23.57;;
12802;SDS011;6465;42.700;23.278;2023-11-21T05:10:11;30.27;;;20.33;;
12802;SDS011;6465;42.700;23.278;2023-11-21T05:12:40;26.90;;;20.33;;
12802;SDS011;6465;42.700;23.278;2023-11-21T05:15:09;34.37;;;22.23;;
12802;SDS011;6465;42.700;23.278;2023-11-21T05:17:39;30.60;;;21.53;;
12802;SDS011;6465;42.700;23.278;2023-11-21T05:20:08;31.83;;;22.50;;
12802;SDS011;6465;42.700;23.278;2023-11-21T05:22:36;29.57;;;22.37;;
12802;SDS011;6465;42.700;23.278;2023-11-21T05:25:03;33.33;;;23.07;;
12802;SDS011;6465;42.700;23.278;2023-11-21T05:27:32;47.27;;;32.70;;
12802;SDS011;6465;42.700;23.278;2023-11-21T05:30:00;55.50;;;34.03;;
12802;SDS011;6465;42.700;23.278;2023-11-21T05:32:29;35.83;;;26.53;;
12802;SDS011;6465;42.700;23.278;2023-11-21T05:34:55;85.10;;;65.87;;
12802;SDS011;6465;42.700;23.278;2023-11-21T05:37:22;49.57;;;39.67;;
12802;SDS011;6465;42.700;23.278;2023-11-21T05:39:50;51.73;;;40.03;;
12802;SDS011;6465;42.700;23.278;2023-11-21T05:42:17;52.90;;;41.37;;
12802;SDS011;6465;42.700;23.278;2023-11-21T05:44:44;70.97;;;44.80;;
12802;SDS011;6465;42.700;23.278;2023-11-21T05:47:11;69.60;;;43.67;;
12802;SDS011;6465;42.700;23.278;2023-11-21T05:49:40;50.13;;;36.33;;
12802;SDS011;6465;42.700;23.278;2023-11-21T05:52:07;38.30;;;29.13;;
12802;SDS011;6465;42.700;23.278;2023-11-21T05:54:35;46.73;;;32.10;;
12802;SDS011;6465;42.700;23.278;2023-11-21T05:57:02;43.33;;;31.40;;
12802;SDS011;6465;42.700;23.278;2023-11-21T05:59:29;41.90;;;29.13;;
12802;SDS011;6465;42.700;23.278;2023-11-21T06:01:56;44.57;;;28.90;;
12802;SDS011;6465;42.700;23.278;2023-11-21T06:04:23;57.60;;;29.30;;
12802;SDS011;6465;42.700;23.278;2023-11-21T06:06:52;51.03;;;27.80;;
12802;SDS011;6465;42.700;23.278;2023-11-21T06:09:19;26.07;;;17.67;;
12802;SDS011;6465;42.700;23.278;2023-11-21T06:11:47;25.03;;;16.40;;
12802;SDS011;6465;42.700;23.278;2023-11-21T06:14:14;28.93;;;17.77;;
12802;SDS011;6465;42.700;23.278;2023-11-21T06:16:43;26.93;;;17.83;;
12802;SDS011;6465;42.700;23.278;2023-11-21T06:19:10;26.23;;;15.93;;
12802;SDS011;6465;42.700;23.278;2023-11-21T06:21:37;23.93;;;16.97;;
12802;SDS011;6465;42.700;23.278;2023-11-21T06:24:06;23.93;;;16.97;;
12802;SDS011;6465;42.700;23.278;2023-11-21T06:26:33;39.53;;;26.67;;
12802;SDS011;6465;42.700;23.278;2023-11-21T06:29:00;43.80;;;30.70;;
12802;SDS011;6465;42.700;23.278;2023-11-21T06:31:28;45.37;;;30.37;;
12802;SDS011;6465;42.700;23.278;2023-11-21T06:33:55;50.70;;;30.27;;
12802;SDS011;6465;42.700;23.278;2023-11-21T06:36:23;46.83;;;32.40;;
12802;SDS011;6465;42.700;23.278;2023-11-21T06:38:49;48.63;;;31.87;;
12802;SDS011;6465;42.700;23.278;2023-11-21T06:41:18;49.10;;;33.57;;
12802;SDS011;6465;42.700;23.278;2023-11-21T06:43:44;49.07;;;33.17;;
12802;SDS011;6465;42.700;23.278;2023-11-21T06:46:11;44.43;;;30.63;;
12802;SDS011;6465;42.700;23.278;2023-11-21T06:48:40;47.10;;;32.50;;
12802;SDS011;6465;42.700;23.278;2023-11-21T06:51:08;45.43;;;31.30;;
12802;SDS011;6465;42.700;23.278;2023-11-21T06:53:36;52.83;;;31.87;;
12802;SDS011;6465;42.700;23.278;2023-11-21T06:56:03;46.53;;;30.80;;
12802;SDS011;6465;42.700;23.278;2023-11-21T06:58:32;42.97;;;31.57;;
12802;SDS011;6465;42.700;23.278;2023-11-21T07:00:59;44.43;;;30.00;;
12802;SDS011;6465;42.700;23.278;2023-11-21T07:03:26;50.00;;;32.07;;
12802;SDS011;6465;42.700;23.278;2023-11-21T07:05:52;52.93;;;35.20;;
12802;SDS011;6465;42.700;23.278;2023-11-21T07:08:19;65.17;;;41.60;;
12802;SDS011;6465;42.700;23.278;2023-11-21T07:10:46;72.77;;;47.23;;
12802;SDS011;6465;42.700;23.278;2023-11-21T07:13:14;76.17;;;50.07;;
12802;SDS011;6465;42.700;23.278;2023-11-21T07:15:42;64.77;;;42.73;;
12802;SDS011;6465;42.700;23.278;2023-11-21T07:18:09;68.97;;;43.83;;
12802;SDS011;6465;42.700;23.278;2023-11-21T07:20:36;57.60;;;37.77;;
12802;SDS011;6465;42.700;23.278;2023-11-21T07:23:03;57.77;;;37.27;;
12802;SDS011;6465;42.700;23.278;2023-11-21T07:25:30;45.83;;;32.30;;
12802;SDS011;6465;42.700;23.278;2023-11-21T07:27:58;49.33;;;32.67;;
12802;SDS011;6465;42.700;23.278;2023-11-21T07:30:25;46.63;;;31.97;;
12802;SDS011;6465;42.700;23.278;2023-11-21T07:32:54;42.93;;;31.63;;
12802;SDS011;6465;42.700;23.278;2023-11-21T07:35:20;38.73;;;29.70;;
12802;SDS011;6465;42.700;23.278;2023-11-21T07:37:47;37.57;;;26.07;;
12802;SDS011;6465;42.700;23.278;2023-11-21T07:40:15;41.10;;;27.73;;
12802;SDS011;6465;42.700;23.278;2023-11-21T07:42:42;40.97;;;28.47;;
12802;SDS011;6465;42.700;23.278;2023-11-21T07:45:09;40.27;;;27.27;;
12802;SDS011;6465;42.700;23.278;2023-11-21T07:47:36;38.03;;;28.13;;
12802;SDS011;6465;42.700;23.278;2023-11-21T07:50:06;36.43;;;27.87;;
12802;SDS011;6465;42.700;23.278;2023-11-21T07:52:34;39.80;;;28.67;;
12802;SDS011;6465;42.700;23.278;2023-11-21T07:55:01;38.70;;;27.73;;
12802;SDS011;6465;42.700;23.278;2023-11-21T07:57:28;38.87;;;27.93;;
12802;SDS011;6465;42.700;23.278;2023-11-21T07:59:55;47.17;;;27.43;;
12802;SDS011;6465;42.700;23.278;2023-11-21T08:02:22;37.50;;;27.07;;
12802;SDS011;6465;42.700;23.278;2023-11-21T08:04:49;37.83;;;26.80;;
12802;SDS011;6465;42.700;23.278;2023-11-21T08:07:18;40.43;;;26.97;;
12802;SDS011;6465;42.700;23.278;2023-11-21T08:09:45;40.80;;;26.97;;
12802;SDS011;6465;42.700;23.278;2023-11-21T08:12:14;36.00;;;25.37;;
12802;SDS011;6465;42.700;23.278;2023-11-21T08:14:41;34.70;;;27.17;;
12802;SDS011;6465;42.700;23.278;2023-11-21T08:17:09;34.73;;;25.13;;
12802;SDS011;6465;42.700;23.278;2023-11-21T08:19:36;36.80;;;26.30;;
12802;SDS011;6465;42.700;23.278;2023-11-21T08:22:03;42.50;;;29.53;;
12802;SDS011;6465;42.700;23.278;2023-11-21T08:24:34;38.17;;;26.63;;
12802;SDS011;6465;42.700;23.278;2023-11-21T08:27:02;34.40;;;24.60;;
12802;SDS011;6465;42.700;23.278;2023-11-21T08:29:30;43.13;;;28.67;;
12802;SDS011;6465;42.700;23.278;2023-11-21T08:31:57;38.97;;;28.10;;
12802;SDS011;6465;42.700;23.278;2023-11-21T08:34:25;41.97;;;25.67;;
12802;SDS011;6465;42.700;23.278;2023-11-21T08:36:52;42.27;;;31.47;;
12802;SDS011;6465;42.700;23.278;2023-11-21T08:39:18;42.97;;;30.63;;
12802;SDS011;6465;42.700;23.278;2023-11-21T08:41:47;37.70;;;28.57;;
12802;SDS011;6465;42.700;23.278;2023-11-21T08:44:14;37.43;;;28.13;;
12802;SDS011;6465;42.700;23.278;2023-11-21T08:46:43;35.57;;;27.13;;
12802;SDS011;6465;42.700;23.278;2023-11-21T08:49:10;32.00;;;24.27;;
12802;SDS011;6465;42.700;23.278;2023-11-21T08:51:38;31.63;;;23.23;;
12802;SDS011;6465;42.700;23.278;2023-11-21T08:54:05;30.67;;;21.87;;
12802;SDS011;6465;42.700;23.278;2023-11-21T08:56:33;27.10;;;20.90;;
12802;SDS011;6465;42.700;23.278;2023-11-21T08:59:01;26.53;;;21.13;;
12802;SDS011;6465;42.700;23.278;2023-11-21T09:01:28;28.53;;;21.07;;
12802;SDS011;6465;42.700;23.278;2023-11-21T09:03:56;30.63;;;20.93;;
12802;SDS011;6465;42.700;23.278;2023-11-21T09:06:23;24.87;;;21.27;;
12802;SDS011;6465;42.700;23.278;2023-11-21T09:08:50;28.37;;;21.97;;
12802;SDS011;6465;42.700;23.278;2023-11-21T09:11:17;32.27;;;22.73;;
12802;SDS011;6465;42.700;23.278;2023-11-21T09:13:44;33.73;;;25.00;;
12802;SDS011;6465;42.700;23.278;2023-11-21T09:16:13;36.87;;;25.97;;
12802;SDS011;6465;42.700;23.278;2023-11-21T09:18:40;34.53;;;25.83;;
12802;SDS011;6465;42.700;23.278;2023-11-21T09:21:07;34.50;;;25.87;;
12802;SDS011;6465;42.700;23.278;2023-11-21T09:23:35;34.20;;;26.27;;
12802;SDS011;6465;42.700;23.278;2023-11-21T09:26:02;37.50;;;25.13;;
12802;SDS011;6465;42.700;23.278;2023-11-21T09:28:30;37.63;;;26.40;;
12802;SDS011;6465;42.700;23.278;2023-11-21T09:30:57;44.00;;;30.27;;
12802;SDS011;6465;42.700;23.278;2023-11-21T09:33:25;38.97;;;29.80;;
12802;SDS011;6465;42.700;23.278;2023-11-21T09:35:52;35.50;;;28.47;;
12802;SDS011;6465;42.700;23.278;2023-11-21T09:38:19;38.50;;;27.97;;
12802;SDS011;6465;42.700;23.278;2023-11-21T09:40:46;36.67;;;27.27;;
12802;SDS011;6465;42.700;23.278;2023-11-21T09:43:15;39.50;;;28.20;;
12802;SDS011;6465;42.700;23.278;2023-11-21T09:45:44;32.43;;;27.57;;
12802;SDS011;6465;42.700;23.278;2023-11-21T09:48:12;39.90;;;29.07;;
12802;SDS011;6465;42.700;23.278;2023-11-21T09:50:42;38.17;;;28.67;;
12802;SDS011;6465;42.700;23.278;2023-11-21T09:53:11;43.60;;;28.50;;
12802;SDS011;6465;42.700;23.278;2023-11-21T09:55:42;38.97;;;28.67;;
12802;SDS011;6465;42.700;23.278;2023-11-21T09:58:09;37.00;;;27.93;;
12802;SDS011;6465;42.700;23.278;2023-11-21T10:00:38;37.03;;;27.93;;
12802;SDS011;6465;42.700;23.278;2023-11-21T10:03:07;38.63;;;28.07;;
12802;SDS011;6465;42.700;23.278;2023-11-21T10:05:34;37.80;;;27.50;;
12802;SDS011;6465;42.700;23.278;2023-11-21T10:08:03;36.57;;;26.30;;
12802;SDS011;6465;42.700;23.278;2023-11-21T10:10:33;33.97;;;25.67;;
12802;SDS011;6465;42.700;23.278;2023-11-21T10:13:01;30.63;;;23.73;;
12802;SDS011;6465;42.700;23.278;2023-11-21T10:15:31;36.17;;;25.83;;
12802;SDS011;6465;42.700;23.278;2023-11-21T10:18:01;30.07;;;23.03;;
12802;SDS011;6465;42.700;23.278;2023-11-21T10:20:29;33.73;;;21.90;;
12802;SDS011;6465;42.700;23.278;2023-11-21T10:22:58;30.17;;;22.10;;
12802;SDS011;6465;42.700;23.278;2023-11-21T10:25:28;33.03;;;23.87;;
12802;SDS011;6465;42.700;23.278;2023-11-21T10:27:57;29.67;;;24.07;;
12802;SDS011;6465;42.700;23.278;2023-11-21T10:30:27;27.83;;;22.70;;
12802;SDS011;6465;42.700;23.278;2023-11-21T10:32:59;29.07;;;22.27;;
12802;SDS011;6465;42.700;23.278;2023-11-21T10:35:38;31.00;;;23.53;;
12802;SDS011;6465;42.700;23.278;2023-11-21T10:38:06;29.90;;;22.43;;
12802;SDS011;6465;42.700;23.278;2023-11-21T10:40:38;25.77;;;20.83;;
12802;SDS011;6465;42.700;23.278;2023-11-21T10:43:07;27.57;;;21.73;;
12802;SDS011;6465;42.700;23.278;2023-11-21T10:45:35;36.27;;;23.37;;
12802;SDS011;6465;42.700;23.278;2023-11-21T10:48:04;28.30;;;21.33;;
12802;SDS011;6465;42.700;23.278;2023-11-21T10:50:33;26.20;;;20.43;;
12802;SDS011;6465;42.700;23.278;2023-11-21T10:53:01;26.17;;;20.10;;
12802;SDS011;6465;42.700;23.278;2023-11-21T10:55:29;25.60;;;20.30;;
12802;SDS011;6465;42.700;23.278;2023-11-21T10:58:00;27.07;;;20.87;;
12802;SDS011;6465;42.700;23.278;2023-11-21T11:00:29;25.67;;;20.87;;
12802;SDS011;6465;42.700;23.278;2023-11-21T11:02:57;30.53;;;19.90;;
12802;SDS011;6465;42.700;23.278;2023-11-21T11:05:25;23.40;;;19.13;;
12802;SDS011;6465;42.700;23.278;2023-11-21T11:07:56;25.00;;;18.07;;
12802;SDS011;6465;42.700;23.278;2023-11-21T11:10:26;23.70;;;17.10;;
12802;SDS011;6465;42.700;23.278;2023-11-21T11:12:54;23.73;;;16.60;;
12802;SDS011;6465;42.700;23.278;2023-11-21T11:15:24;19.60;;;17.10;;
12802;SDS011;6465;42.700;23.278;2023-11-21T11:17:52;26.90;;;17.83;;
12802;SDS011;6465;42.700;23.278;2023-11-21T11:20:22;20.50;;;17.20;;
12802;SDS011;6465;42.700;23.278;2023-11-21T11:22:54;23.13;;;16.47;;
12802;SDS011;6465;42.700;23.278;2023-11-21T11:25:37;19.93;;;16.07;;
12802;SDS011;6465;42.700;23.278;2023-11-21T11:28:19;23.43;;;17.67;;
12802;SDS011;6465;42.700;23.278;2023-11-21T11:30:53;20.13;;;16.47;;
12802;SDS011;6465;42.700;23.278;2023-11-21T11:33:31;24.30;;;17.70;;
12802;SDS011;6465;42.700;23.278;2023-11-21T11:36:06;22.53;;;17.40;;
12802;SDS011;6465;42.700;23.278;2023-11-21T11:38:37;26.93;;;19.00;;
12802;SDS011;6465;42.700;23.278;2023-11-21T11:41:04;22.73;;;18.03;;
12802;SDS011;6465;42.700;23.278;2023-11-21T11:43:34;23.63;;;17.60;;
12802;SDS011;6465;42.700;23.278;2023-11-21T11:46:11;22.60;;;17.53;;
12802;SDS011;6465;42.700;23.278;2023-11-21T11:48:40;27.13;;;18.67;;
12802;SDS011;6465;42.700;23.278;2023-11-21T11:51:10;23.40;;;17.70;;
12802;SDS011;6465;42.700;23.278;2023-11-21T11:53:39;26.23;;;17.63;;
12802;SDS011;6465;42.700;23.278;2023-11-21T11:56:21;22.57;;;16.90;;
12802;SDS011;6465;42.700;23.278;2023-11-21T11:58:50;20.37;;;15.40;;
12802;SDS011;6465;42.700;23.278;2023-11-21T12:01:19;23.33;;;17.67;;
12802;SDS011;6465;42.700;23.278;2023-11-21T12:06:48;29.67;;;20.07;;
12802;SDS011;6465;42.700;23.278;2023-11-21T12:09:18;31.93;;;20.63;;
12802;SDS011;6465;42.700;23.278;2023-11-21T12:11:45;30.20;;;21.13;;
12802;SDS011;6465;42.700;23.278;2023-11-21T12:14:13;28.93;;;20.83;;
12802;SDS011;6465;42.700;23.278;2023-11-21T12:16:42;32.60;;;22.63;;
12802;SDS011;6465;42.700;23.278;2023-11-21T12:19:09;30.93;;;22.23;;
12802;SDS011;6465;42.700;23.278;2023-11-21T12:21:36;29.33;;;20.10;;
12802;SDS011;6465;42.700;23.278;2023-11-21T12:24:04;25.40;;;19.83;;
12802;SDS011;6465;42.700;23.278;2023-11-21T12:26:33;26.93;;;20.00;;
12802;SDS011;6465;42.700;23.278;2023-11-21T12:29:01;22.70;;;19.10;;
12802;SDS011;6465;42.700;23.278;2023-11-21T12:31:29;23.50;;;18.73;;
12802;SDS011;6465;42.700;23.278;2023-11-21T12:33:57;25.63;;;20.23;;
12802;SDS011;6465;42.700;23.278;2023-11-21T12:36:24;29.87;;;21.03;;
12802;SDS011;6465;42.700;23.278;2023-11-21T12:38:54;20.73;;;17.87;;
12802;SDS011;6465;42.700;23.278;2023-11-21T12:41:21;24.90;;;19.57;;
12802;SDS011;6465;42.700;23.278;2023-11-21T12:43:48;33.70;;;24.03;;
12802;SDS011;6465;42.700;23.278;2023-11-21T12:46:15;37.43;;;28.83;;
12802;SDS011;6465;42.700;23.278;2023-11-21T12:48:43;34.27;;;27.43;;
12802;SDS011;6465;42.700;23.278;2023-11-21T12:51:12;25.93;;;21.40;;
12802;SDS011;6465;42.700;23.278;2023-11-21T12:53:41;23.73;;;19.13;;
12802;SDS011;6465;42.700;23.278;2023-11-21T12:56:09;21.13;;;17.57;;
12802;SDS011;6465;42.700;23.278;2023-11-21T12:58:37;21.30;;;16.90;;
12802;SDS011;6465;42.700;23.278;2023-11-21T13:01:06;16.47;;;14.43;;
12802;SDS011;6465;42.700;23.278;2023-11-21T13:03:37;18.07;;;15.07;;
12802;SDS011;6465;42.700;23.278;2023-11-21T13:06:05;20.50;;;15.43;;
12802;SDS011;6465;42.700;23.278;2023-11-21T13:08:35;21.67;;;17.43;;
12802;SDS011;6465;42.700;23.278;2023-11-21T13:11:04;17.80;;;15.93;;
12802;SDS011;6465;42.700;23.278;2023-11-21T13:13:32;16.57;;;14.70;;
12802;SDS011;6465;42.700;23.278;2023-11-21T13:15:59;18.03;;;15.10;;
12802;SDS011;6465;42.700;23.278;2023-11-21T13:18:29;20.70;;;15.57;;
12802;SDS011;6465;42.700;23.278;2023-11-21T13:20:58;21.43;;;17.83;;
12802;SDS011;6465;42.700;23.278;2023-11-21T13:23:26;23.93;;;17.57;;
12802;SDS011;6465;42.700;23.278;2023-11-21T13:25:55;21.30;;;17.47;;
12802;SDS011;6465;42.700;23.278;2023-11-21T13:28:23;34.87;;;28.67;;
12802;SDS011;6465;42.700;23.278;2023-11-21T13:30:57;65.50;;;51.27;;
12802;SDS011;6465;42.700;23.278;2023-11-21T13:33:28;41.13;;;33.93;;
12802;SDS011;6465;42.700;23.278;2023-11-21T13:35:55;49.40;;;40.70;;
12802;SDS011;6465;42.700;23.278;2023-11-21T13:38:22;40.73;;;35.03;;
12802;SDS011;6465;42.700;23.278;2023-11-21T13:40:49;42.07;;;34.97;;
12802;SDS011;6465;42.700;23.278;2023-11-21T13:43:20;39.43;;;33.37;;
12802;SDS011;6465;42.700;23.278;2023-11-21T13:45:50;50.67;;;41.30;;
12802;SDS011;6465;42.700;23.278;2023-11-21T13:48:25;54.87;;;46.43;;
12802;SDS011;6465;42.700;23.278;2023-11-21T13:50:59;69.50;;;54.87;;
12802;SDS011;6465;42.700;23.278;2023-11-21T13:53:35;75.77;;;62.57;;
12802;SDS011;6465;42.700;23.278;2023-11-21T13:56:03;78.87;;;64.60;;
12802;SDS011;6465;42.700;23.278;2023-11-21T13:58:31;89.17;;;68.33;;
12802;SDS011;6465;42.700;23.278;2023-11-21T14:01:06;82.03;;;66.87;;
12802;SDS011;6465;42.700;23.278;2023-11-21T14:03:42;79.17;;;67.57;;
12802;SDS011;6465;42.700;23.278;2023-11-21T14:06:17;88.87;;;70.83;;
12802;SDS011;6465;42.700;23.278;2023-11-21T14:08:49;86.20;;;70.47;;
12802;SDS011;6465;42.700;23.278;2023-11-21T14:11:16;83.73;;;67.00;;
12802;SDS011;6465;42.700;23.278;2023-11-21T14:13:48;96.73;;;85.17;;
12802;SDS011;6465;42.700;23.278;2023-11-21T14:16:15;109.37;;;98.07;;
12802;SDS011;6465;42.700;23.278;2023-11-21T14:18:43;107.70;;;96.47;;
12802;SDS011;6465;42.700;23.278;2023-11-21T14:21:19;122.20;;;101.40;;
12802;SDS011;6465;42.700;23.278;2023-11-21T14:23:46;130.00;;;103.97;;
12802;SDS011;6465;42.700;23.278;2023-11-21T14:26:13;135.03;;;109.53;;
12802;SDS011;6465;42.700;23.278;2023-11-21T14:28:42;155.83;;;121.53;;